Time;durP1;ratioP1;P1;durP2;ratioP2;P2;SDS_P1;SDS_P2;PMS_P1;PMS_P2;Temp;Humidity;BMP_temperature;BMP_pressure;BME280_temperature;BME280_humidity;BME280_pressure;Samples;Min_cycle;Max_cycle;Signal;HPM_P1;HPM_P2
2023/03/02 00:02:09;;;;;;;;;54.00;43.40;;;;;4.20;44.53;99591.66;6147630;28;96361;-61
2023/03/02 00:05:13;;;;;;;;;52.00;42.00;;;;;4.18;44.13;99591.81;6125031;28;99302;-60
2023/03/02 00:08:19;;;;;;;;;55.75;43.00;;;;;4.17;44.34;99598.13;6166203;28;96440;-60
2023/03/02 00:11:22;;;;;;;;;53.00;44.00;;;;;4.17;44.46;99599.97;6160634;28;96463;-63
2023/03/02 00:14:26;;;;;;;;;49.40;41.00;;;;;4.16;44.06;99595.63;6151841;28;96347;-62
2023/03/02 00:17:31;;;;;;;;;54.80;42.80;;;;;4.12;44.30;99597.78;6123449;28;96623;-63
2023/03/02 00:20:34;;;;;;;;;54.40;44.20;;;;;4.11;43.96;99604.13;6122786;28;97266;-62
2023/03/02 00:23:38;;;;;;;;;54.50;43.00;;;;;4.08;43.80;99592.94;6157433;28;96950;-63
2023/03/02 00:26:42;;;;;;;;;53.50;43.00;;;;;3.95;43.99;99573.91;6146950;28;97017;-63
2023/03/02 00:29:46;;;;;;;;;53.50;41.75;;;;;4.02;44.33;99589.09;6157035;28;96895;-63
2023/03/02 00:32:51;;;;;;;;;52.00;42.25;;;;;3.95;44.17;99590.75;6136489;28;96607;-63
2023/03/02 00:35:54;;;;;;;;;51.20;41.40;;;;;3.92;44.32;99591.06;6162351;28;96521;-63
2023/03/02 00:38:58;;;;;;;;;53.00;43.00;;;;;3.89;44.61;99591.41;6149771;28;96298;-64
2023/03/02 00:42:01;;;;;;;;;55.00;44.00;;;;;3.69;44.27;99566.00;6144118;28;98780;-62
2023/03/02 00:45:06;;;;;;;;;52.40;42.00;;;;;3.84;44.57;99588.38;6131011;28;96865;-63
2023/03/02 00:48:10;;;;;;;;;55.75;44.00;;;;;3.80;44.90;99585.19;6145937;28;96286;-62
2023/03/02 00:51:15;;;;;;;;;55.40;44.00;;;;;3.77;45.09;99574.00;6148698;28;96395;-62
2023/03/02 00:54:18;;;;;;;;;54.50;43.50;;;;;3.86;45.30;99575.72;6108226;28;96944;-62
2023/03/02 00:57:21;;;;;;;;;58.00;46.00;;;;;3.89;44.91;99578.91;6156072;28;96233;-63
2023/03/02 01:00:27;;;;;;;;;58.20;46.00;;;;;3.76;45.21;99570.50;6111912;28;98349;-63
2023/03/02 01:03:35;;;;;;;;;53.50;43.75;;;;;3.73;45.67;99580.66;6134119;28;96633;-62
2023/03/02 01:06:45;;;;;;;;;56.80;44.80;;;;;3.65;45.26;99573.47;6140145;28;96464;-63
2023/03/02 01:09:49;;;;;;;;;54.25;44.00;;;;;3.66;45.91;99572.50;6124292;28;96617;-63
2023/03/02 01:12:52;;;;;;;;;54.67;43.00;;;;;3.61;45.64;99569.47;6129793;28;96731;-63
2023/03/02 01:16:03;;;;;;;;;57.40;44.80;;;;;3.63;45.52;99570.13;6146634;28;96324;-63
2023/03/02 01:19:08;;;;;;;;;57.20;44.80;;;;;3.65;45.85;99572.66;6130921;28;96605;-63
2023/03/02 01:22:11;;;;;;;;;57.00;46.00;;;;;3.68;45.53;99562.47;6140773;28;96303;-63
2023/03/02 01:25:14;;;;;;;;;54.00;44.00;;;;;3.67;45.23;99563.47;6136839;28;97381;-63
2023/03/02 01:28:18;;;;;;;;;57.00;45.00;;;;;3.59;45.57;99560.78;6163544;28;96260;-63
2023/03/02 01:31:21;;;;;;;;;60.40;47.60;;;;;3.56;45.57;99557.63;6151936;28;96530;-63
2023/03/02 01:34:27;;;;;;;;;54.60;43.60;;;;;3.59;45.77;99549.28;6132741;28;96485;-63
2023/03/02 01:37:30;;;;;;;;;55.60;44.00;;;;;3.46;46.03;99547.06;6114121;28;96628;-63
2023/03/02 01:40:34;;;;;;;;;55.75;45.00;;;;;3.41;46.47;99568.03;6144294;28;96613;-61
2023/03/02 01:43:38;;;;;;;;;61.60;48.00;;;;;3.38;46.89;99563.00;6155133;28;96585;-63
2023/03/02 01:46:41;;;;;;;;;58.25;46.00;;;;;3.36;46.85;99560.53;6133842;28;96559;-63
2023/03/02 01:49:49;;;;;;;;;59.40;48.00;;;;;3.22;46.42;99550.47;6147076;28;97484;-63
2023/03/02 01:52:55;;;;;;;;;54.40;45.00;;;;;3.25;47.02;99546.63;6163589;28;96479;-63
2023/03/02 01:56:01;;;;;;;;;53.00;43.00;;;;;3.18;46.78;99537.59;6129439;28;96387;-62
2023/03/02 01:59:10;;;;;;;;;57.00;44.60;;;;;3.14;47.29;99518.44;6112622;28;98369;-63
2023/03/02 02:02:13;;;;;;;;;57.60;46.00;;;;;3.26;47.02;99527.00;6148599;28;96523;-62
2023/03/02 02:05:22;;;;;;;;;56.25;46.00;;;;;3.25;46.57;99512.84;6129505;28;96653;-63
2023/03/02 02:08:26;;;;;;;;;58.20;46.00;;;;;3.20;47.08;99514.31;6119607;28;96333;-63
2023/03/02 02:11:29;;;;;;;;;56.20;45.00;;;;;3.21;47.15;99519.47;6137225;28;97718;-62
2023/03/02 02:14:33;;;;;;;;;55.00;45.80;;;;;3.20;47.21;99527.63;6133458;28;96372;-63
2023/03/02 02:17:36;;;;;;;;;57.50;45.25;;;;;3.23;46.97;99528.13;6154854;28;96486;-62
2023/03/02 02:20:44;;;;;;;;;61.80;47.20;;;;;3.34;47.22;99522.53;6132263;28;97302;-63
2023/03/02 02:24:01;;;;;;;;;58.00;46.00;;;;;3.33;46.29;99512.84;6129492;28;96563;-63
2023/03/02 02:27:06;;;;;;;;;54.50;43.75;;;;;3.26;46.41;99508.34;6126532;28;98770;-62
2023/03/02 02:30:13;;;;;;;;;61.00;47.00;;;;;3.28;47.24;99514.31;6122739;28;96913;-62
2023/03/02 02:33:22;;;;;;;;;57.00;45.80;;;;;3.29;46.37;99514.19;6142858;28;96198;-63
2023/03/02 02:36:31;;;;;;;;;56.33;44.67;;;;;3.32;46.39;99513.84;6118179;28;99055;-63
2023/03/02 02:39:43;;;;;;;;;55.20;43.20;;;;;3.28;46.59;99506.34;6140840;28;97256;-63
2023/03/02 02:42:52;;;;;;;;;55.50;44.75;;;;;3.22;46.30;99510.50;6137484;28;96570;-63
2023/03/02 02:45:58;;;;;;;;;59.60;47.00;;;;;3.24;46.88;99502.31;6146751;28;96378;-63
2023/03/02 02:49:03;;;;;;;;;58.00;45.60;;;;;3.27;46.34;99505.53;6130361;28;96870;-63
2023/03/02 02:52:07;;;;;;;;;60.00;46.00;;;;;3.22;46.82;99507.00;6160783;28;96456;-63
2023/03/02 02:55:16;;;;;;;;;59.20;48.20;;;;;3.14;47.18;99496.28;6146394;28;96303;-62
2023/03/02 02:58:31;;;;;;;;;59.50;48.00;;;;;3.16;46.93;99494.31;6144055;28;96405;-63
2023/03/02 03:01:35;;;;;;;;;64.80;50.20;;;;;3.23;46.83;99488.16;6127178;28;96729;-63
2023/03/02 03:04:38;;;;;;;;;65.40;50.80;;;;;3.08;46.94;99460.44;6132104;28;96529;-63
2023/03/02 03:07:43;;;;;;;;;65.50;51.00;;;;;3.27;47.18;99486.03;6139278;28;96293;-63
2023/03/02 03:10:46;;;;;;;;;60.00;47.20;;;;;3.23;47.31;99482.00;6131661;28;96802;-61
2023/03/02 03:13:57;;;;;;;;;65.40;51.00;;;;;3.25;46.82;99458.69;6147381;28;96552;-61
2023/03/02 03:17:00;;;;;;;;;67.00;51.75;;;;;3.39;46.46;99479.41;6120467;28;98429;-61
2023/03/02 03:20:06;;;;;;;;;65.40;50.00;;;;;3.38;46.39;99475.06;6128068;28;96531;-61
2023/03/02 03:23:12;;;;;;;;;64.40;50.00;;;;;3.41;46.69;99478.25;6113274;28;97494;-61
2023/03/02 03:26:15;;;;;;;;;62.75;49.00;;;;;3.46;46.13;99473.28;6153991;28;98411;-60
2023/03/02 03:29:24;;;;;;;;;64.00;49.60;;;;;3.47;45.84;99472.25;6113418;28;97245;-61
2023/03/02 03:32:34;;;;;;;;;67.00;51.20;;;;;3.46;45.68;99461.78;6138649;28;97507;-60
2023/03/02 03:35:39;;;;;;;;;65.00;51.60;;;;;3.47;45.72;99466.09;6137536;28;97342;-60
2023/03/02 03:38:43;;;;;;;;;63.20;49.80;;;;;3.37;46.27;99466.22;6120647;28;98192;-61
2023/03/02 03:41:46;;;;;;;;;63.00;50.25;;;;;3.26;46.13;99452.38;6139913;28;96670;-61
2023/03/02 03:44:51;;;;;;;;;65.00;51.00;;;;;3.19;46.27;99454.84;6133747;28;98985;-61
2023/03/02 03:47:54;;;;;;;;;65.00;51.00;;;;;2.98;46.41;99438.47;6129674;28;96405;-61
2023/03/02 03:50:58;;;;;;;;;63.40;50.00;;;;;2.91;46.52;99445.41;6136880;28;98039;-61
2023/03/02 03:54:02;;;;;;;;;64.00;51.00;;;;;2.91;46.95;99448.91;6135133;28;96555;-61
2023/03/02 03:57:12;;;;;;;;;66.50;51.00;;;;;2.92;46.86;99455.06;6131953;28;96411;-60
2023/03/02 04:00:18;;;;;;;;;64.60;51.00;;;;;2.89;46.97;99453.53;6153537;28;96327;-61
2023/03/02 04:03:27;;;;;;;;;62.00;50.00;;;;;2.83;47.35;99450.72;6155022;28;96540;-61
2023/03/02 04:06:31;;;;;;;;;58.40;46.00;;;;;2.77;47.12;99460.16;6117537;28;97670;-61
2023/03/02 04:09:36;;;;;;;;;61.75;49.00;;;;;2.74;47.47;99452.47;6115422;28;96746;-61
2023/03/02 04:12:42;;;;;;;;;63.00;49.00;;;;;2.68;46.86;99442.47;6126266;28;96652;-61
2023/03/02 04:15:48;;;;;;;;;62.00;48.00;;;;;2.68;47.15;99439.81;6132101;28;96635;-61
2023/03/02 04:18:51;;;;;;;;;60.20;48.00;;;;;2.82;47.31;99449.03;6122749;28;96649;-60
2023/03/02 04:21:57;;;;;;;;;63.00;49.25;;;;;2.76;46.77;99444.31;6129095;28;96695;-60
2023/03/02 04:25:01;;;;;;;;;64.60;49.00;;;;;2.75;46.86;99455.97;6145098;28;96277;-60
2023/03/02 04:28:05;;;;;;;;;63.00;50.00;;;;;2.77;47.09;99456.66;6139935;28;96255;-61
2023/03/02 04:31:13;;;;;;;;;64.00;50.25;;;;;2.69;47.14;99459.28;6140402;28;96464;-61
2023/03/02 04:34:17;;;;;;;;;67.00;52.50;;;;;2.59;47.48;99448.75;6152708;28;97173;-61
2023/03/02 04:37:21;;;;;;;;;63.25;49.50;;;;;2.46;47.48;99443.00;6146969;28;96485;-60
2023/03/02 04:40:25;;;;;;;;;62.20;49.20;;;;;2.42;47.26;99446.97;6163112;28;96962;-61
2023/03/02 04:43:28;;;;;;;;;60.75;48.25;;;;;2.37;47.99;99450.09;6139537;28;96748;-61
2023/03/02 04:46:33;;;;;;;;;63.75;48.75;;;;;2.33;48.02;99442.56;6165044;28;96801;-60
2023/03/02 04:49:37;;;;;;;;;59.60;46.00;;;;;2.39;48.37;99448.13;6143803;28;96762;-60
2023/03/02 04:52:41;;;;;;;;;60.40;48.20;;;;;2.37;47.55;99443.94;6144848;28;98353;-61
2023/03/02 04:55:44;;;;;;;;;58.00;46.00;;;;;2.38;47.64;99443.78;6161203;28;96800;-60
2023/03/02 04:58:48;;;;;;;;;65.00;50.00;;;;;2.41;48.17;99445.28;6130407;28;98734;-60
2023/03/02 05:01:54;;;;;;;;;63.40;49.60;;;;;2.46;47.97;99443.00;6152351;28;97534;-60
2023/03/02 05:04:57;;;;;;;;;66.40;52.00;;;;;2.54;47.88;99451.03;6119398;28;96669;-60
2023/03/02 05:08:01;;;;;;;;;69.50;53.00;;;;;2.54;47.65;99453.72;6157399;28;96714;-60
2023/03/02 05:11:05;;;;;;;;;66.60;52.00;;;;;2.47;47.43;99442.00;6137073;28;98929;-61
2023/03/02 05:14:11;;;;;;;;;67.60;53.00;;;;;2.53;47.44;99446.69;6132730;28;96809;-60
2023/03/02 05:17:16;;;;;;;;;69.75;53.00;;;;;2.59;46.97;99454.88;6162222;28;96738;-61
2023/03/02 05:20:19;;;;;;;;;67.20;53.00;;;;;2.45;47.13;99430.66;6146930;28;97067;-61
2023/03/02 05:23:27;;;;;;;;;62.00;48.60;;;;;2.54;46.93;99459.84;6162757;28;96425;-61
2023/03/02 05:26:31;;;;;;;;;66.00;51.00;;;;;2.45;47.30;99462.59;6165015;28;97413;-61
2023/03/02 05:29:34;;;;;;;;;69.75;52.75;;;;;2.44;47.58;99461.78;6163484;28;96277;-60
2023/03/02 05:32:39;;;;;;;;;66.00;51.00;;;;;2.49;47.33;99471.97;6116615;28;96716;-60
2023/03/02 05:35:43;;;;;;;;;64.60;50.40;;;;;2.56;47.28;99459.69;6159396;28;96706;-61
2023/03/02 05:38:47;;;;;;;;;70.00;56.25;;;;;2.58;47.54;99455.06;6159503;28;96520;-61
2023/03/02 05:41:50;;;;;;;;;65.20;51.00;;;;;2.61;47.36;99454.72;6158243;28;96416;-63
2023/03/02 05:44:53;;;;;;;;;63.60;50.80;;;;;2.70;47.85;99455.59;6149562;28;97970;-63
2023/03/02 05:47:58;;;;;;;;;64.20;50.60;;;;;2.80;47.69;99451.00;6160330;28;96842;-62
2023/03/02 05:51:02;;;;;;;;;68.00;53.25;;;;;2.90;47.59;99457.88;6160712;28;96438;-62
2023/03/02 05:54:05;;;;;;;;;67.60;52.00;;;;;2.95;47.22;99444.94;6145887;28;98386;-62
2023/03/02 05:57:08;;;;;;;;;65.60;51.00;;;;;3.18;47.15;99453.16;6156410;28;98504;-62
2023/03/02 06:00:13;;;;;;;;;67.20;51.60;;;;;3.30;46.96;99453.72;6158345;28;96540;-62
2023/03/02 06:03:18;;;;;;;;;67.75;53.00;;;;;3.57;46.88;99466.78;6170263;28;96503;-62
2023/03/02 06:06:21;;;;;;;;;70.40;55.00;;;;;3.75;46.71;99464.84;6138977;28;96515;-62
2023/03/02 06:09:25;;;;;;;;;67.40;52.60;;;;;3.91;46.42;99472.00;6155515;28;97372;-62
2023/03/02 06:12:29;;;;;;;;;72.00;56.80;;;;;4.10;46.93;99473.56;6129297;28;99604;-61
2023/03/02 06:15:32;;;;;;;;;65.80;52.40;;;;;4.31;46.34;99477.38;6141175;28;98290;-62
2023/03/02 06:18:37;;;;;;;;;71.80;57.40;;;;;4.52;46.06;99473.34;6141551;28;96577;-63
2023/03/02 06:21:43;;;;;;;;;72.00;60.00;;;;;4.78;45.76;99471.31;6160367;28;96510;-62
2023/03/02 06:24:47;;;;;;;;;72.40;60.40;;;;;4.58;45.45;99412.09;6160342;28;96809;-62
2023/03/02 06:27:52;;;;;;;;;72.00;57.80;;;;;5.09;45.04;99468.69;6161162;28;96470;-63
2023/03/02 06:30:55;;;;;;;;;71.40;57.60;;;;;5.30;44.84;99473.47;6155756;28;98027;-63
2023/03/02 06:34:00;;;;;;;;;70.20;56.00;;;;;5.56;44.55;99466.00;6155685;28;96716;-62
2023/03/02 06:37:04;;;;;;;;;70.00;53.00;;;;;5.98;43.64;99478.97;6154346;28;96611;-61
2023/03/02 06:40:09;;;;;;;;;71.60;55.00;;;;;6.52;42.80;99469.00;6162015;28;96975;-62
2023/03/02 06:43:13;;;;;;;;;74.40;60.00;;;;;7.14;41.06;99466.81;6149971;28;98244;-61
2023/03/02 06:46:16;;;;;;;;;73.00;59.20;;;;;8.00;39.39;99473.25;6159675;28;96188;-63
2023/03/02 06:49:23;;;;;;;;;70.80;59.00;;;;;8.88;37.95;99470.09;6136791;28;97565;-63
2023/03/02 06:52:26;;;;;;;;;72.80;60.80;;;;;10.10;35.76;99473.75;6127636;28;98377;-62
2023/03/02 06:55:30;;;;;;;;;72.50;58.75;;;;;12.03;32.91;99474.88;6143892;28;96561;-62
2023/03/02 06:58:33;;;;;;;;;73.00;59.40;;;;;14.13;29.49;99474.69;6162394;28;96996;-63
2023/03/02 07:01:36;;;;;;;;;71.60;57.00;;;;;15.45;27.32;99470.59;6150880;28;96351;-63
2023/03/02 07:04:41;;;;;;;;;76.00;63.00;;;;;16.16;26.42;99472.91;6162429;28;96334;-63
2023/03/02 07:07:45;;;;;;;;;74.25;60.25;;;;;16.92;25.48;99468.78;6140754;28;96781;-63
2023/03/02 07:10:48;;;;;;;;;74.00;60.00;;;;;18.35;23.54;99462.19;6148455;28;97154;-64
2023/03/02 07:13:52;;;;;;;;;76.20;63.60;;;;;20.04;21.69;99465.78;6156557;28;98054;-63
2023/03/02 07:16:56;;;;;;;;;75.40;63.80;;;;;21.92;20.17;99470.09;6153359;28;96362;-64
2023/03/02 07:20:01;;;;;;;;;71.00;56.25;;;;;23.61;18.52;99461.09;6160740;28;96497;-64
2023/03/02 07:23:04;;;;;;;;;70.00;55.00;;;;;25.05;16.91;99454.09;6146219;28;96814;-65
2023/03/02 07:26:08;;;;;;;;;68.00;52.80;;;;;26.25;15.94;99456.38;6140992;28;96642;-64
2023/03/02 07:29:11;;;;;;;;;66.00;51.00;;;;;27.15;14.74;99462.81;6161438;28;96342;-64
2023/03/02 07:32:14;;;;;;;;;65.80;49.20;;;;;27.92;14.14;99454.03;6137605;28;96446;-65
2023/03/02 07:35:19;;;;;;;;;68.00;51.60;;;;;28.48;14.03;99450.38;6135845;28;96568;-65
2023/03/02 07:38:23;;;;;;;;;64.00;51.00;;;;;28.93;12.98;99444.50;6140322;28;97425;-65
2023/03/02 07:41:26;;;;;;;;;62.40;49.80;;;;;29.48;12.71;99450.06;6132102;28;97049;-65
2023/03/02 07:44:30;;;;;;;;;64.40;51.40;;;;;29.93;12.43;99444.81;6158229;28;97137;-63
2023/03/02 07:47:34;;;;;;;;;62.80;50.00;;;;;30.49;11.92;99438.75;6159066;28;96698;-64
2023/03/02 07:50:39;;;;;;;;;65.00;51.00;;;;;30.90;11.85;99442.59;6160691;28;96396;-65
2023/03/02 07:53:42;;;;;;;;;63.75;50.00;;;;;31.26;11.22;99439.13;6142994;28;98737;-65
2023/03/02 07:56:45;;;;;;;;;60.25;48.00;;;;;31.82;10.89;99435.47;6156799;28;97053;-65
2023/03/02 07:59:48;;;;;;;;;61.80;49.80;;;;;32.03;10.88;99448.47;6160579;28;96933;-64
2023/03/02 08:02:52;;;;;;;;;63.25;49.50;;;;;32.30;10.48;99444.19;6141524;28;96498;-64
2023/03/02 08:05:57;;;;;;;;;63.00;50.00;;;;;32.89;10.55;99433.19;6131810;28;96744;-64
2023/03/02 08:09:02;;;;;;;;;65.00;50.40;;;;;33.30;10.01;99438.31;6150571;28;96514;-65
2023/03/02 08:12:05;;;;;;;;;64.75;50.00;;;;;33.63;9.98;99432.34;6140014;28;98411;-64
2023/03/02 08:15:10;;;;;;;;;62.00;48.00;;;;;34.09;9.45;99427.09;6156944;28;97186;-64
2023/03/02 08:18:13;;;;;;;;;63.25;49.00;;;;;34.51;9.52;99433.66;6140567;28;98455;-64
2023/03/02 08:21:20;;;;;;;;;55.25;44.50;;;;;34.92;9.53;99434.94;6164080;28;96283;-62
2023/03/02 08:24:24;;;;;;;;;59.60;46.00;;;;;34.98;8.90;99432.63;6134301;28;96713;-62
2023/03/02 08:27:27;;;;;;;;;54.50;44.50;;;;;35.10;8.74;99429.66;6144458;28;98810;-62
2023/03/02 08:30:31;;;;;;;;;54.50;43.50;;;;;34.99;8.28;99423.06;6152342;28;96465;-62
2023/03/02 08:33:35;;;;;;;;;57.00;45.60;;;;;35.11;8.26;99429.28;6128402;28;97241;-62
2023/03/02 08:36:42;;;;;;;;;57.00;44.00;;;;;34.94;8.36;99424.19;6162846;28;97454;-62
2023/03/02 08:39:45;;;;;;;;;56.00;44.00;;;;;34.83;8.38;99425.13;6160919;28;96714;-62
2023/03/02 08:42:55;;;;;;;;;60.75;46.00;;;;;34.94;8.83;99412.16;6153920;28;96259;-62
2023/03/02 08:45:59;;;;;;;;;58.67;46.00;;;;;34.97;9.10;99419.81;6137504;28;98515;-62
2023/03/02 08:49:03;;;;;;;;;56.50;46.25;;;;;34.91;9.20;99410.88;6155954;28;96345;-63
2023/03/02 08:52:07;;;;;;;;;57.75;46.00;;;;;35.10;9.35;99416.44;6149024;28;96470;-63
2023/03/02 08:55:11;;;;;;;;;59.40;47.40;;;;;35.23;8.49;99410.72;6148698;28;96286;-63
2023/03/02 08:58:15;;;;;;;;;57.60;46.00;;;;;35.37;8.31;99403.34;6146934;28;98889;-62
2023/03/02 09:01:21;;;;;;;;;57.75;45.25;;;;;35.59;8.55;99404.50;6129546;28;96986;-62
2023/03/02 09:04:24;;;;;;;;;59.75;46.00;;;;;35.84;8.32;99411.34;6132705;28;96338;-63
2023/03/02 09:07:29;;;;;;;;;61.00;48.80;;;;;35.66;8.74;99401.06;6130662;28;97242;-63
2023/03/02 09:10:32;;;;;;;;;59.75;47.25;;;;;35.01;8.21;99401.88;6145516;28;98739;-61
2023/03/02 09:13:36;;;;;;;;;58.20;46.20;;;;;35.43;8.82;99403.84;6162454;28;96517;-63
2023/03/02 09:16:39;;;;;;;;;63.00;48.00;;;;;35.68;8.76;99407.88;6164438;28;96933;-63
2023/03/02 09:19:43;;;;;;;;;58.80;46.40;;;;;35.79;8.23;99405.25;6146062;28;96554;-63
2023/03/02 09:22:49;;;;;;;;;58.00;48.00;;;;;36.30;8.47;99402.81;6146671;28;97185;-63
2023/03/02 09:25:53;;;;;;;;;56.75;46.00;;;;;36.26;8.35;99385.94;6164692;28;96961;-64
2023/03/02 09:28:57;;;;;;;;;57.40;45.00;;;;;36.13;8.08;99392.97;6163072;28;96931;-64
2023/03/02 09:32:00;;;;;;;;;53.80;44.00;;;;;35.98;7.89;99394.72;6145644;28;96657;-63
2023/03/02 09:35:04;;;;;;;;;56.50;45.50;;;;;35.44;8.20;99383.84;6146317;28;97188;-63
2023/03/02 09:38:14;;;;;;;;;55.00;45.50;;;;;35.40;8.26;99388.59;6157171;28;96339;-63
2023/03/02 09:41:57;;;;;;;;;58.00;46.00;;;;;35.46;8.82;99386.28;6150047;28;97359;-63
2023/03/02 09:45:16;;;;;;;;;53.00;42.00;;;;;35.43;8.09;99385.00;6147215;28;96936;-64
2023/03/02 09:48:32;;;;;;;;;53.00;44.00;;;;;35.64;8.23;99381.75;6158286;28;96326;-64
2023/03/02 09:51:43;;;;;;;;;56.00;43.20;;;;;35.27;8.38;99375.13;6133951;28;97121;-65
2023/03/02 09:54:48;;;;;;;;;54.40;44.00;;;;;35.34;8.08;99384.47;6146188;28;99053;-64
2023/03/02 09:57:53;;;;;;;;;57.60;45.60;;;;;35.45;8.35;99384.66;6144773;28;96825;-65
2023/03/02 10:01:00;;;;;;;;;55.00;45.00;;;;;35.68;8.43;99374.22;6146341;28;96802;-64
2023/03/02 10:04:15;;;;;;;;;53.60;43.60;;;;;35.69;8.45;99370.25;6145971;28;97040;-64
2023/03/02 10:07:26;;;;;;;;;54.40;44.00;;;;;36.10;8.27;99367.63;6147678;28;96239;-64
2023/03/02 10:10:40;;;;;;;;;52.00;42.00;;;;;36.29;8.16;99364.69;6152684;28;96992;-64
2023/03/02 10:13:48;;;;;;;;;50.00;41.40;;;;;36.38;8.04;99362.41;6155461;28;96235;-64
2023/03/02 10:17:00;;;;;;;;;49.60;40.00;;;;;35.94;7.60;99365.00;6135757;28;97053;-64
2023/03/02 10:20:09;;;;;;;;;50.00;40.40;;;;;35.75;7.94;99365.13;6147370;28;96516;-64
2023/03/02 10:23:27;;;;;;;;;52.40;42.00;;;;;35.95;7.85;99361.00;6161770;28;96442;-63
2023/03/02 10:26:39;;;;;;;;;50.60;41.00;;;;;36.21;8.13;99354.59;6144958;28;96638;-63
2023/03/02 10:29:48;;;;;;;;;50.40;41.80;;;;;36.34;7.57;99347.53;6163201;28;96433;-64
2023/03/02 10:32:53;;;;;;;;;48.00;40.00;;;;;36.37;7.67;99346.75;6144975;28;97236;-64
2023/03/02 10:35:56;;;;;;;;;49.00;40.00;;;;;36.21;7.76;99349.78;6147054;28;96308;-64
2023/03/02 10:39:00;;;;;;;;;47.00;38.60;;;;;35.90;7.86;99338.88;6148230;28;96296;-64
2023/03/02 10:42:10;;;;;;;;;48.60;38.80;;;;;35.46;8.18;99331.00;6135497;28;97528;-64
2023/03/02 10:45:23;;;;;;;;;46.50;39.00;;;;;35.30;8.02;99324.72;6161745;28;96482;-64
2023/03/02 10:48:27;;;;;;;;;47.00;38.00;;;;;35.38;8.53;99322.88;6159603;28;96301;-64
2023/03/02 10:51:33;;;;;;;;;45.40;36.00;;;;;35.34;8.04;99316.38;6162555;28;96287;-62
2023/03/02 10:54:36;;;;;;;;;45.00;38.00;;;;;35.60;7.25;99322.00;6156721;28;96415;-65
2023/03/02 10:57:43;;;;;;;;;48.60;38.80;;;;;35.44;8.04;99312.91;6162630;28;96244;-64
2023/03/02 11:00:56;;;;;;;;;47.75;39.00;;;;;35.22;8.22;99313.78;6158462;28;96413;-64
2023/03/02 11:04:01;;;;;;;;;42.80;36.00;;;;;34.59;7.37;99303.00;6144869;28;96626;-64
2023/03/02 11:07:11;;;;;;;;;40.60;34.60;;;;;34.78;8.49;99300.19;6144695;28;96572;-64
2023/03/02 11:10:20;;;;;;;;;47.00;36.20;;;;;34.73;8.00;99294.91;6146984;28;96511;-63
2023/03/02 11:13:28;;;;;;;;;45.00;38.00;;;;;34.79;7.74;99287.81;6146239;28;97542;-64
2023/03/02 11:16:32;;;;;;;;;45.00;37.25;;;;;34.75;8.36;99284.94;6162422;28;96872;-64
2023/03/02 11:19:40;;;;;;;;;36.00;32.00;;;;;34.67;8.26;99287.94;6158393;28;96552;-65
2023/03/02 11:22:51;;;;;;;;;38.00;33.00;;;;;34.26;7.98;99279.16;6162560;28;96585;-65
2023/03/02 11:25:58;;;;;;;;;26.50;25.50;;;;;34.01;7.55;99272.25;6114119;28;96692;-65
2023/03/02 11:29:11;;;;;;;;;31.00;29.00;;;;;34.01;7.90;99272.25;6161992;28;96463;-65
2023/03/02 11:32:20;;;;;;;;;30.00;28.00;;;;;33.82;7.92;99270.22;6161631;28;96352;-65
2023/03/02 11:35:32;;;;;;;;;37.00;32.00;;;;;33.33;7.65;99260.72;6127848;28;97777;-65
2023/03/02 11:38:46;;;;;;;;;34.00;30.20;;;;;33.41;8.32;99251.31;6162277;28;96455;-65
2023/03/02 11:41:51;;;;;;;;;27.20;26.00;;;;;32.35;8.13;99255.00;6158161;28;96554;-65
2023/03/02 11:44:56;;;;;;;;;24.00;22.00;;;;;32.22;8.05;99248.66;6155462;28;96351;-65
2023/03/02 11:48:06;;;;;;;;;27.60;25.00;;;;;32.60;8.37;99241.69;6129195;28;96229;-65
2023/03/02 11:51:13;;;;;;;;;24.75;22.75;;;;;32.08;8.69;99236.25;6136483;28;96387;-64
2023/03/02 11:54:29;;;;;;;;;25.00;23.00;;;;;31.75;8.54;99228.16;6156943;28;96397;-64
2023/03/02 11:57:36;;;;;;;;;28.00;25.20;;;;;31.08;9.05;99238.00;6137336;28;96726;-66
2023/03/02 12:00:44;;;;;;;;;29.60;28.40;;;;;31.07;8.99;99235.56;6152670;28;96302;-67
2023/03/02 12:03:47;;;;;;;;;29.80;27.00;;;;;31.21;8.89;99233.22;6127122;28;96975;-65
2023/03/02 12:06:51;;;;;;;;;31.00;29.00;;;;;30.95;9.68;99228.78;6132093;28;96619;-65
2023/03/02 12:10:07;;;;;;;;;28.00;26.60;;;;;31.48;9.26;99215.75;6137951;28;98460;-65
2023/03/02 12:13:18;;;;;;;;;33.20;29.80;;;;;31.79;9.67;99221.50;6132824;28;97216;-65
2023/03/02 12:16:33;;;;;;;;;32.00;29.00;;;;;31.54;9.90;99217.13;6138920;28;96252;-65
2023/03/02 12:19:44;;;;;;;;;29.40;25.40;;;;;31.59;9.37;99211.34;6144136;28;97805;-60
2023/03/02 12:22:47;;;;;;;;;30.60;28.60;;;;;31.67;9.81;99215.97;6155069;28;96446;-59
2023/03/02 12:26:02;;;;;;;;;28.00;26.60;;;;;31.33;9.59;99214.50;6130471;28;97547;-59
2023/03/02 12:29:23;;;;;;;;;35.00;30.00;;;;;30.64;9.69;99205.47;6145634;28;97100;-59
2023/03/02 12:32:30;;;;;;;;;31.00;28.00;;;;;30.10;10.27;99205.59;6148430;28;97347;-59
2023/03/02 12:35:34;;;;;;;;;29.80;27.00;;;;;29.59;10.48;99201.28;6157463;28;97642;-59
2023/03/02 12:38:40;;;;;;;;;33.50;29.50;;;;;28.20;10.87;99192.00;6147351;28;96650;-59
2023/03/02 12:42:09;;;;;;;;;30.00;27.00;;;;;27.57;11.82;99199.09;6140288;28;96701;-58
2023/03/02 12:45:27;;;;;;;;;28.20;26.20;;;;;26.71;12.34;99190.59;6149800;28;96974;-59
2023/03/02 12:48:43;;;;;;;;;32.20;29.00;;;;;25.85;12.53;99187.34;6171302;28;96244;-60
2023/03/02 12:51:51;;;;;;;;;30.60;28.60;;;;;24.90;13.80;99185.69;6170186;28;96455;-59
2023/03/02 12:55:03;;;;;;;;;27.60;25.60;;;;;24.84;14.02;99183.31;6180493;28;96738;-58
2023/03/02 12:58:17;;;;;;;;;34.00;30.00;;;;;24.81;13.82;99179.22;6167851;28;96273;-58
2023/03/02 13:01:22;;;;;;;;;32.00;29.00;;;;;24.62;13.74;99163.94;6176947;28;96843;-58
2023/03/02 13:04:27;;;;;;;;;29.60;26.40;;;;;24.40;14.02;99179.22;6175076;28;96884;-58
2023/03/02 13:07:37;;;;;;;;;27.00;25.00;;;;;24.16;14.51;99173.91;6175879;28;96381;-61
2023/03/02 13:10:42;;;;;;;;;27.00;25.50;;;;;23.75;14.61;99165.50;6164452;28;98349;-58
2023/03/02 13:13:47;;;;;;;;;31.60;28.40;;;;;23.62;15.24;99159.94;6165990;28;96697;-58
2023/03/02 13:16:56;;;;;;;;;25.20;22.80;;;;;23.56;14.63;99156.47;6170114;28;98443;-59
2023/03/02 13:20:03;;;;;;;;;27.60;25.60;;;;;23.52;15.16;99157.34;6177517;28;96425;-58
2023/03/02 13:23:07;;;;;;;;;28.00;26.00;;;;;22.84;15.11;99147.59;6176074;28;96256;-58
2023/03/02 13:26:25;;;;;;;;;29.67;27.00;;;;;22.46;15.82;99137.63;6167312;28;97597;-60
2023/03/02 13:29:30;;;;;;;;;29.00;28.00;;;;;22.35;15.50;99131.44;6145693;28;96635;-59
2023/03/02 13:32:38;;;;;;;;;29.00;26.60;;;;;21.63;16.45;99124.19;6172496;28;96601;-58
2023/03/02 13:35:46;;;;;;;;;33.00;29.40;;;;;21.74;16.55;99131.25;6169125;28;96249;-58
2023/03/02 13:38:52;;;;;;;;;32.40;29.40;;;;;21.65;16.67;99140.38;6180702;28;96254;-58
2023/03/02 13:41:58;;;;;;;;;26.00;24.60;;;;;21.73;16.75;99128.78;6169531;28;96199;-58
2023/03/02 13:45:21;;;;;;;;;29.50;26.50;;;;;21.78;16.55;99123.22;6150192;28;97324;-60
2023/03/02 13:48:26;;;;;;;;;24.60;23.00;;;;;21.79;17.15;99124.88;6168704;28;97217;-60
2023/03/02 13:51:34;;;;;;;;;31.80;29.40;;;;;21.83;17.17;99123.19;6167925;28;96228;-60
2023/03/02 13:54:38;;;;;;;;;36.00;30.00;;;;;21.56;16.32;99108.06;6153708;28;96325;-58
2023/03/02 13:57:41;;;;;;;;;29.25;29.25;;;;;21.38;17.19;99106.03;6169238;28;97170;-58
2023/03/02 14:00:45;;;;;;;;;34.75;30.00;;;;;21.13;17.53;99115.25;6135173;28;100011;-58
2023/03/02 14:03:48;;;;;;;;;33.00;29.00;;;;;21.22;17.57;99114.66;6153273;28;96669;-58
2023/03/02 14:06:54;;;;;;;;;30.00;28.50;;;;;21.34;17.87;99104.97;6161780;28;96228;-58
2023/03/02 14:09:57;;;;;;;;;33.00;29.00;;;;;20.87;17.18;99102.78;6155255;28;96508;-58
2023/03/02 14:13:05;;;;;;;;;32.00;30.00;;;;;20.29;17.71;99097.03;6169079;28;96264;-57
2023/03/02 14:16:12;;;;;;;;;31.00;28.00;;;;;20.02;18.34;99093.03;6149937;28;96368;-60
2023/03/02 14:19:17;;;;;;;;;33.40;28.20;;;;;19.95;18.72;99093.31;6142112;28;98589;-60
2023/03/02 14:22:23;;;;;;;;;39.40;31.40;;;;;19.92;19.19;99091.13;6146626;28;97051;-60
2023/03/02 14:25:26;;;;;;;;;35.80;30.20;;;;;19.92;18.82;99088.41;6156125;28;96278;-59